createdAt,value
2018-05-23T00:00:26.501Z,18.21
2018-05-23T00:01:26.417Z,18.13
2018-05-23T00:02:26.364Z,18.09
2018-05-23T00:03:26.239Z,18.01
2018-05-23T00:04:26.149Z,18.05
2018-05-23T00:05:27.546Z,18.05
2018-05-23T00:06:25.974Z,17.99
2018-05-23T00:07:25.919Z,17.95
2018-05-23T00:08:25.798Z,17.87
2018-05-23T00:09:25.709Z,17.83
2018-05-23T00:10:25.621Z,17.81
2018-05-23T00:11:25.654Z,17.91
2018-05-23T00:12:25.478Z,17.94
2018-05-23T00:13:25.358Z,17.91
2018-05-23T00:14:25.267Z,17.84
2018-05-23T00:15:25.182Z,17.80
2018-05-23T00:16:25.092Z,17.80
2018-05-23T00:17:25.031Z,17.84
2018-05-23T00:18:24.920Z,17.80
2018-05-23T00:19:24.826Z,17.80
2018-05-23T00:20:24.740Z,17.80
2018-05-23T00:21:24.657Z,17.71
2018-05-23T00:22:24.593Z,17.74
2018-05-23T00:23:24.471Z,17.63
2018-05-23T00:24:25.102Z,17.60
2018-05-23T00:25:24.301Z,17.58
2018-05-23T00:26:24.208Z,17.58
2018-05-23T00:27:24.151Z,17.60
2018-05-23T00:28:24.032Z,17.43
2018-05-23T00:29:23.945Z,17.46
2018-05-23T00:30:23.855Z,17.25
2018-05-23T00:31:23.779Z,17.25
2018-05-23T00:32:23.714Z,17.25
2018-05-23T00:33:23.595Z,17.12
2018-05-23T00:34:23.503Z,16.91
2018-05-23T00:35:23.413Z,16.95
2018-05-23T00:36:23.326Z,16.77
2018-05-23T00:37:23.272Z,16.73
2018-05-23T00:38:23.160Z,16.69
2018-05-23T00:39:23.059Z,16.48
2018-05-23T00:40:22.973Z,16.51
2018-05-23T00:41:22.884Z,16.50
2018-05-23T00:42:22.824Z,16.55
2018-05-23T00:43:22.708Z,16.51
2018-05-23T00:44:22.617Z,16.52
2018-05-23T00:45:22.532Z,16.57
2018-05-23T00:46:22.441Z,16.42
2018-05-23T00:47:22.384Z,16.32
2018-05-23T00:48:22.290Z,16.42
2018-05-23T00:49:22.176Z,16.44
2018-05-23T00:50:22.095Z,16.42
2018-05-23T00:51:22.000Z,16.27
2018-05-23T00:52:21.942Z,16.17
2018-05-23T00:53:21.822Z,16.16
2018-05-23T00:54:21.731Z,16.06
2018-05-23T00:55:21.641Z,15.95
2018-05-23T00:56:21.552Z,15.89
2018-05-23T00:57:21.497Z,15.78
2018-05-23T00:58:21.379Z,15.81
2018-05-23T00:59:21.299Z,15.76
2018-05-23T01:00:21.291Z,15.74
2018-05-23T01:01:21.109Z,15.60
2018-05-23T01:02:21.052Z,15.52
2018-05-23T01:03:20.931Z,15.51
2018-05-23T01:04:20.841Z,15.49
2018-05-23T01:05:20.754Z,15.38
2018-05-23T01:06:20.662Z,15.38
2018-05-23T01:07:20.671Z,15.38
2018-05-23T01:08:20.519Z,15.23
2018-05-23T01:09:21.158Z,15.19
2018-05-23T01:10:20.305Z,15.11
2018-05-23T01:11:20.216Z,15.09
2018-05-23T01:12:20.133Z,14.93
2018-05-23T01:13:20.071Z,14.90
2018-05-23T01:14:20.042Z,14.87
2018-05-23T01:15:19.860Z,14.85
2018-05-23T01:16:20.620Z,14.75
2018-05-23T01:17:19.688Z,14.75
2018-05-23T01:18:19.625Z,14.53
2018-05-23T01:19:19.516Z,14.39
2018-05-23T01:20:19.415Z,14.35
2018-05-23T01:21:19.598Z,14.35
2018-05-23T01:22:20.066Z,14.34
2018-05-23T01:23:19.175Z,14.31
2018-05-23T01:24:19.059Z,14.35
2018-05-23T01:25:18.965Z,14.30
2018-05-23T01:26:18.876Z,14.16
2018-05-23T01:27:18.787Z,14.21
2018-05-23T01:28:18.816Z,14.19
2018-05-23T01:29:18.610Z,14.12
2018-05-23T01:30:18.518Z,14.12
2018-05-23T01:31:18.429Z,14.02
2018-05-23T01:32:18.339Z,13.98
2018-05-23T01:33:18.280Z,13.93
2018-05-23T01:34:18.158Z,13.86
2018-05-23T01:35:18.172Z,13.88
2018-05-23T01:36:17.978Z,13.84
2018-05-23T01:37:17.888Z,13.87
2018-05-23T01:38:17.826Z,13.73
2018-05-23T01:39:17.713Z,13.76
2018-05-23T01:40:17.630Z,13.76
2018-05-23T01:41:17.530Z,13.73
2018-05-23T01:42:17.530Z,13.91
2018-05-23T01:43:17.379Z,13.99
2018-05-23T01:44:17.259Z,13.90
2018-05-23T01:45:17.169Z,13.79
2018-05-23T01:46:17.084Z,13.65
2018-05-23T01:47:16.986Z,13.66
2018-05-23T01:48:16.931Z,13.54
2018-05-23T01:49:16.905Z,13.61
2018-05-23T01:50:16.723Z,13.51
2018-05-23T01:51:16.628Z,13.47
2018-05-23T01:52:16.539Z,13.47
2018-05-23T01:53:16.479Z,13.46
2018-05-23T01:54:16.356Z,13.48
2018-05-23T01:55:16.265Z,13.48
2018-05-23T01:56:16.270Z,13.39
2018-05-23T01:57:16.088Z,13.25
2018-05-23T01:58:16.032Z,13.27
2018-05-23T01:59:15.902Z,13.17
2018-05-23T02:00:15.815Z,13.06
2018-05-23T02:01:15.725Z,13.03
2018-05-23T02:02:15.633Z,12.94
2018-05-23T02:03:15.665Z,12.89
2018-05-23T02:04:15.449Z,12.94
2018-05-23T02:05:15.364Z,12.91
2018-05-23T02:06:15.269Z,12.91
2018-05-23T02:07:15.179Z,12.89
2018-05-23T02:08:15.127Z,12.91
2018-05-23T02:09:15.092Z,12.94
2018-05-23T02:10:14.906Z,12.91
2018-05-23T02:11:14.816Z,12.91
2018-05-23T02:12:14.727Z,12.96
2018-05-23T02:13:14.669Z,12.89
2018-05-23T02:14:14.543Z,12.92
2018-05-23T02:15:14.454Z,12.92
2018-05-23T02:16:14.364Z,12.94
2018-05-23T02:17:15.080Z,12.87
2018-05-23T02:18:14.210Z,12.85
2018-05-23T02:19:14.636Z,12.89
2018-05-23T02:20:14.640Z,12.77
2018-05-23T02:21:13.906Z,12.80
2018-05-23T02:22:13.815Z,12.69
2018-05-23T02:23:13.824Z,12.69
2018-05-23T02:24:13.666Z,12.80
2018-05-23T02:25:13.542Z,12.79
2018-05-23T02:26:13.453Z,12.81
2018-05-23T02:27:13.362Z,12.80
2018-05-23T02:28:13.272Z,12.69
2018-05-23T02:29:13.211Z,12.80
2018-05-23T02:30:13.088Z,12.87
2018-05-23T02:31:12.997Z,12.91
2018-05-23T02:32:12.906Z,12.89
2018-05-23T02:33:12.815Z,12.91
2018-05-23T02:34:12.758Z,12.87
2018-05-23T02:35:12.633Z,12.81
2018-05-23T02:36:12.541Z,12.77
2018-05-23T02:37:12.452Z,12.77
2018-05-23T02:38:12.361Z,12.73
2018-05-23T02:39:12.384Z,12.56
2018-05-23T02:40:12.179Z,12.38
2018-05-23T02:41:12.089Z,12.40
2018-05-23T02:42:11.996Z,12.33
2018-05-23T02:43:11.902Z,12.41
2018-05-23T02:44:11.847Z,12.34
2018-05-23T02:45:11.725Z,12.23
2018-05-23T02:46:11.629Z,12.38
2018-05-23T02:47:12.117Z,12.38
2018-05-23T02:48:11.450Z,12.38
2018-05-23T02:49:11.389Z,12.26
2018-05-23T02:50:11.265Z,12.40
2018-05-23T02:51:11.174Z,12.31
2018-05-23T02:52:11.635Z,12.34
2018-05-23T02:53:10.995Z,12.37
2018-05-23T02:54:10.947Z,12.33
2018-05-23T02:55:10.806Z,12.40
2018-05-23T02:56:10.717Z,12.37
2018-05-23T02:57:10.629Z,12.48
2018-05-23T02:58:10.658Z,12.43
2018-05-23T02:59:10.485Z,12.37
2018-05-23T03:00:10.355Z,12.40
2018-05-23T03:01:10.259Z,12.40
2018-05-23T03:02:10.168Z,12.36
2018-05-23T03:03:10.592Z,12.40
2018-05-23T03:04:10.029Z,12.38
2018-05-23T03:05:09.896Z,12.40
2018-05-23T03:06:09.804Z,12.37
2018-05-23T03:07:09.710Z,12.34
2018-05-23T03:08:09.630Z,12.34
2018-05-23T03:09:09.562Z,12.46
2018-05-23T03:10:09.439Z,12.49
2018-05-23T03:11:09.351Z,12.48
2018-05-23T03:12:10.154Z,12.46
2018-05-23T03:13:10.151Z,12.41
2018-05-23T03:14:09.116Z,12.41
2018-05-23T03:15:08.979Z,12.40
2018-05-23T03:16:08.889Z,12.46
2018-05-23T03:17:08.799Z,12.40
2018-05-23T03:18:08.710Z,12.41
2018-05-23T03:19:08.645Z,12.34
2018-05-23T03:20:08.526Z,12.26
2018-05-23T03:21:08.432Z,12.11
2018-05-23T03:22:08.430Z,12.08
2018-05-23T03:23:08.250Z,12.15
2018-05-23T03:24:08.192Z,12.12
2018-05-23T03:25:08.067Z,12.16
2018-05-23T03:26:07.975Z,12.13
2018-05-23T03:27:07.884Z,12.13
2018-05-23T03:28:07.797Z,12.16
2018-05-23T03:29:07.704Z,12.03
2018-05-23T03:30:07.643Z,11.85
2018-05-23T03:31:07.520Z,11.78
2018-05-23T03:32:07.425Z,11.74
2018-05-23T03:33:07.337Z,11.69
2018-05-23T03:34:07.247Z,11.72
2018-05-23T03:35:07.185Z,11.67
2018-05-23T03:36:07.062Z,11.70
2018-05-23T03:37:06.970Z,11.57
2018-05-23T03:38:06.878Z,11.64
2018-05-23T03:39:06.791Z,11.62
2018-05-23T03:40:07.601Z,11.75
2018-05-23T03:41:06.604Z,11.90
2018-05-23T03:42:06.514Z,11.96
2018-05-23T03:43:06.423Z,11.93
2018-05-23T03:44:06.330Z,11.90
2018-05-23T03:45:06.280Z,11.84
2018-05-23T03:46:06.145Z,11.85
2018-05-23T03:47:06.053Z,11.81
2018-05-23T03:48:05.963Z,11.79
2018-05-23T03:49:05.870Z,11.79
2018-05-23T03:50:05.808Z,11.87
2018-05-23T03:51:05.685Z,11.93
2018-05-23T03:52:05.601Z,12.03
2018-05-23T03:53:05.506Z,12.25
2018-05-23T03:54:05.412Z,12.38
2018-05-23T03:55:05.356Z,12.41
2018-05-23T03:56:05.229Z,12.40
2018-05-23T03:57:06.104Z,12.40
2018-05-23T03:58:05.047Z,12.23
2018-05-23T03:59:04.954Z,12.22
2018-05-23T04:00:04.896Z,12.08
2018-05-23T04:01:04.863Z,12.11
2018-05-23T04:02:04.680Z,12.29
2018-05-23T04:03:04.588Z,12.29
2018-05-23T04:04:04.494Z,12.26
2018-05-23T04:05:04.434Z,12.18
2018-05-23T04:06:04.311Z,12.26
2018-05-23T04:07:04.220Z,12.34
2018-05-23T04:08:04.129Z,12.33
2018-05-23T04:09:04.038Z,12.46
2018-05-23T04:10:04.320Z,12.43
2018-05-23T04:11:03.885Z,12.54
2018-05-23T04:12:03.762Z,12.70
2018-05-23T04:13:03.669Z,12.79
2018-05-23T04:14:03.577Z,12.89
2018-05-23T04:15:03.487Z,13.03
2018-05-23T04:16:03.507Z,13.07
2018-05-23T04:17:03.308Z,12.99
2018-05-23T04:18:03.213Z,13.04
2018-05-23T04:19:03.120Z,13.03
2018-05-23T04:20:03.030Z,13.04
2018-05-23T04:21:02.972Z,13.10
2018-05-23T04:22:02.845Z,13.06
2018-05-23T04:23:02.850Z,13.28
2018-05-23T04:24:02.728Z,13.39
2018-05-23T04:25:02.574Z,13.35
2018-05-23T04:26:03.113Z,13.31
2018-05-23T04:27:02.393Z,13.35
2018-05-23T04:28:02.300Z,13.32
2018-05-23T04:29:02.215Z,13.47
2018-05-23T04:30:02.215Z,13.44
2018-05-23T04:31:02.058Z,13.50
2018-05-23T04:32:01.934Z,13.47
2018-05-23T04:33:01.842Z,13.47
2018-05-23T04:34:01.750Z,13.61
2018-05-23T04:35:01.663Z,13.59
2018-05-23T04:36:01.603Z,13.63
2018-05-23T04:37:01.600Z,13.76
2018-05-23T04:38:01.387Z,13.76
2018-05-23T04:39:01.298Z,13.75
2018-05-23T04:40:01.212Z,13.83
2018-05-23T04:41:01.118Z,13.87
2018-05-23T04:42:01.056Z,13.88
2018-05-23T04:43:00.934Z,13.90
2018-05-23T04:44:00.935Z,13.90
2018-05-23T04:45:00.754Z,14.05
2018-05-23T04:46:00.682Z,13.99
2018-05-23T04:47:00.600Z,14.05
2018-05-23T04:48:00.481Z,14.01
2018-05-23T04:49:00.391Z,14.19
2018-05-23T04:50:02.118Z,14.19
2018-05-23T04:51:01.169Z,14.21
2018-05-23T04:52:00.146Z,14.36
2018-05-23T04:53:00.032Z,14.44
2018-05-23T04:53:59.943Z,14.53
2018-05-23T04:54:59.850Z,14.56
2018-05-23T04:55:59.759Z,14.57
2018-05-23T04:56:59.717Z,14.74
2018-05-23T04:58:00.169Z,14.82
2018-05-23T04:58:59.489Z,14.85
2018-05-23T04:59:59.394Z,15.09
2018-05-23T05:00:59.308Z,15.15
2018-05-23T05:01:59.249Z,15.16
2018-05-23T05:02:59.126Z,15.28
2018-05-23T05:03:59.038Z,15.60
2018-05-23T05:04:58.948Z,15.77
2018-05-23T05:05:58.859Z,15.91
2018-05-23T05:06:58.797Z,16.08
2018-05-23T05:07:58.679Z,16.16
2018-05-23T05:08:58.589Z,16.44
2018-05-23T05:09:58.512Z,16.47
2018-05-23T05:10:58.502Z,16.70
2018-05-23T05:11:58.353Z,16.72
2018-05-23T05:12:59.181Z,16.91
2018-05-23T05:13:58.142Z,16.91
2018-05-23T05:14:58.623Z,16.88
2018-05-23T05:15:57.968Z,16.99
2018-05-23T05:16:57.907Z,17.07
2018-05-23T05:17:57.791Z,17.12
2018-05-23T05:18:57.703Z,17.20
2018-05-23T05:19:57.612Z,17.28
2018-05-23T05:20:57.526Z,17.38
2018-05-23T05:21:57.466Z,17.39
2018-05-23T05:22:57.348Z,17.45
2018-05-23T05:23:57.260Z,17.47
2018-05-23T05:24:57.228Z,17.55
2018-05-23T05:25:57.087Z,17.62
2018-05-23T05:26:57.028Z,17.71
2018-05-23T05:27:57.627Z,17.76
2018-05-23T05:28:56.820Z,17.83
2018-05-23T05:29:56.731Z,17.96
2018-05-23T05:30:56.648Z,17.95
2018-05-23T05:31:56.588Z,18.10
2018-05-23T05:32:56.469Z,18.10
2018-05-23T05:33:56.381Z,18.10
2018-05-23T05:34:56.294Z,18.14
2018-05-23T05:35:56.212Z,18.14
2018-05-23T05:36:56.149Z,18.20
2018-05-23T05:37:56.033Z,18.21
2018-05-23T05:38:56.038Z,18.16
2018-05-23T05:39:55.859Z,18.11
2018-05-23T05:40:55.782Z,18.11
2018-05-23T05:41:55.716Z,18.04
2018-05-23T05:42:55.600Z,18.07
2018-05-23T05:43:55.509Z,18.05
2018-05-23T05:44:55.423Z,17.91
2018-05-23T05:45:55.335Z,17.81
2018-05-23T05:46:55.340Z,17.84
2018-05-23T05:47:55.165Z,17.81
2018-05-23T05:48:55.074Z,17.83
2018-05-23T05:49:54.987Z,17.71
2018-05-23T05:50:54.921Z,17.71
2018-05-23T05:51:54.845Z,17.76
2018-05-23T05:52:54.756Z,17.77
2018-05-23T05:53:54.640Z,17.70
2018-05-23T05:54:54.555Z,17.63
2018-05-23T05:55:54.467Z,17.49
2018-05-23T05:56:54.386Z,17.49
2018-05-23T05:57:54.321Z,17.43
2018-05-23T05:58:54.204Z,17.39
2018-05-23T05:59:54.120Z,17.24
2018-05-23T06:00:54.033Z,17.27
2018-05-23T06:01:53.988Z,17.39
2018-05-23T06:02:53.891Z,17.35
2018-05-23T06:03:53.772Z,17.46
2018-05-23T06:04:53.684Z,17.55
2018-05-23T06:05:53.605Z,17.62
2018-05-23T06:06:53.511Z,17.70
2018-05-23T06:07:53.454Z,17.77
2018-05-23T06:08:54.196Z,17.98
2018-05-23T06:09:53.295Z,17.92
2018-05-23T06:10:53.164Z,18.04
2018-05-23T06:11:53.690Z,18.13
2018-05-23T06:12:53.024Z,18.29
2018-05-23T06:13:53.001Z,18.44
2018-05-23T06:14:52.815Z,18.38
2018-05-23T06:15:52.729Z,18.56
2018-05-23T06:16:52.642Z,18.62
2018-05-23T06:17:52.590Z,18.59
2018-05-23T06:18:52.469Z,18.65
2018-05-23T06:19:52.382Z,18.65
2018-05-23T06:20:52.398Z,18.66
2018-05-23T06:21:52.207Z,18.71
2018-05-23T06:22:52.154Z,18.82
2018-05-23T06:23:52.043Z,18.91
2018-05-23T06:24:52.648Z,18.87
2018-05-23T06:25:51.864Z,18.89
2018-05-23T06:26:51.779Z,18.84
2018-05-23T06:27:51.813Z,18.87
2018-05-23T06:28:51.607Z,18.87
2018-05-23T06:29:51.519Z,18.93
2018-05-23T06:30:51.435Z,18.79
2018-05-23T06:31:51.351Z,18.65
2018-05-23T06:32:51.293Z,18.76
2018-05-23T06:33:51.175Z,18.83
2018-05-23T06:34:51.197Z,19.02
2018-05-23T06:35:51.003Z,19.05
2018-05-23T06:36:50.917Z,19.20
2018-05-23T06:37:50.951Z,19.20
2018-05-23T06:38:50.744Z,19.35
2018-05-23T06:39:50.658Z,19.27
2018-05-23T06:40:50.573Z,19.25
2018-05-23T06:41:50.586Z,19.31
2018-05-23T06:42:50.433Z,19.35
2018-05-23T06:43:50.315Z,19.17
2018-05-23T06:44:50.232Z,19.30
2018-05-23T06:45:50.153Z,19.28
2018-05-23T06:46:50.057Z,19.28
2018-05-23T06:47:50.007Z,19.25
2018-05-23T06:48:49.978Z,19.28
2018-05-23T06:49:49.802Z,19.24
2018-05-23T06:50:49.718Z,19.30
2018-05-23T06:51:49.633Z,19.28
2018-05-23T06:52:49.581Z,19.32
2018-05-23T06:53:51.154Z,19.28
2018-05-23T06:54:49.374Z,19.38
2018-05-23T06:55:49.386Z,19.45
2018-05-23T06:56:49.209Z,19.50
2018-05-23T06:57:49.146Z,19.75
2018-05-23T06:58:49.032Z,19.82
2018-05-23T06:59:48.947Z,19.83
2018-05-23T07:00:48.863Z,20.02
2018-05-23T07:01:48.775Z,20.15
2018-05-23T07:02:48.820Z,20.13
2018-05-23T07:03:48.607Z,20.19
2018-05-23T07:04:48.523Z,20.25
2018-05-23T07:05:49.226Z,20.38
2018-05-23T07:06:49.160Z,20.41
2018-05-23T07:07:48.272Z,20.37
2018-05-23T07:08:48.215Z,20.42
2018-05-23T07:09:48.197Z,20.26
2018-05-23T07:10:48.013Z,20.35
2018-05-23T07:11:47.926Z,20.42
2018-05-23T07:12:47.843Z,20.42
2018-05-23T07:13:47.786Z,20.38
2018-05-23T07:14:47.672Z,20.40
2018-05-23T07:15:47.587Z,20.38
2018-05-23T07:16:47.594Z,20.42
2018-05-23T07:17:47.440Z,20.40
2018-05-23T07:18:47.366Z,20.31
2018-05-23T07:19:47.257Z,20.27
2018-05-23T07:20:47.169Z,20.16
2018-05-23T07:21:48.218Z,20.40
2018-05-23T07:22:46.995Z,20.41
2018-05-23T07:23:47.331Z,20.42
2018-05-23T07:24:46.826Z,20.42
2018-05-23T07:25:46.750Z,20.37
2018-05-23T07:26:46.657Z,20.41
2018-05-23T07:27:46.571Z,20.40
2018-05-23T07:28:46.517Z,20.57
2018-05-23T07:29:46.401Z,20.56
2018-05-23T07:30:46.421Z,20.51
2018-05-23T07:31:46.240Z,20.68
2018-05-23T07:32:46.727Z,20.71
2018-05-23T07:33:46.098Z,20.88
2018-05-23T07:34:45.986Z,20.81
2018-05-23T07:35:46.723Z,20.88
2018-05-23T07:36:45.812Z,21.13
2018-05-23T07:37:46.025Z,21.37
2018-05-23T07:38:45.673Z,21.51
2018-05-23T07:39:45.559Z,21.58
2018-05-23T07:40:45.476Z,21.63
2018-05-23T07:41:45.390Z,21.77
2018-05-23T07:42:45.308Z,22.05
2018-05-23T07:43:45.255Z,22.14
2018-05-23T07:44:45.234Z,22.45
2018-05-23T07:45:45.062Z,22.42
2018-05-23T07:46:44.972Z,22.11
2018-05-23T07:47:44.891Z,22.20
2018-05-23T07:48:45.733Z,22.19
2018-05-23T07:49:44.721Z,21.68
2018-05-23T07:50:44.637Z,21.53
2018-05-23T07:51:44.643Z,21.28
2018-05-23T07:52:44.476Z,21.06
2018-05-23T07:53:44.415Z,20.72
2018-05-23T07:54:44.303Z,20.42
2018-05-23T07:55:44.217Z,20.57
2018-05-23T07:56:44.165Z,20.38
2018-05-23T07:57:44.053Z,20.44
2018-05-23T07:58:43.999Z,20.16
2018-05-23T07:59:43.886Z,20.25
2018-05-23T08:00:43.802Z,20.25
2018-05-23T08:01:43.714Z,20.10
2018-05-23T08:02:43.637Z,19.82
2018-05-23T08:03:43.588Z,19.82
2018-05-23T08:04:43.462Z,19.68
2018-05-23T08:05:43.471Z,19.68
2018-05-23T08:06:43.297Z,19.47
2018-05-23T08:07:43.212Z,19.57
2018-05-23T08:08:43.157Z,19.72
2018-05-23T08:09:43.042Z,19.75
2018-05-23T08:10:42.958Z,19.78
2018-05-23T08:11:42.872Z,19.76
2018-05-23T08:12:42.788Z,19.89
2018-05-23T08:13:42.704Z,19.87
2018-05-23T08:14:42.648Z,19.82
2018-05-23T08:15:42.533Z,19.85
2018-05-23T08:16:43.185Z,19.89
2018-05-23T08:17:42.363Z,20.02
2018-05-23T08:18:42.311Z,20.20
2018-05-23T08:19:43.185Z,20.15
2018-05-23T08:20:42.109Z,20.07
2018-05-23T08:21:42.025Z,20.02
2018-05-23T08:22:41.940Z,20.08
2018-05-23T08:23:41.858Z,20.25
2018-05-23T08:24:41.799Z,20.15
2018-05-23T08:25:41.682Z,20.13
2018-05-23T08:26:41.600Z,20.12
2018-05-23T08:27:41.515Z,20.13
2018-05-23T08:28:41.433Z,20.04
2018-05-23T08:29:41.433Z,19.90
2018-05-23T08:30:41.259Z,19.79
2018-05-23T08:31:41.172Z,19.70
2018-05-23T08:32:41.089Z,19.76
2018-05-23T08:33:41.004Z,19.82
2018-05-23T08:34:40.949Z,19.86
2018-05-23T08:35:40.832Z,19.85
2018-05-23T08:36:40.746Z,19.83
2018-05-23T08:37:40.691Z,19.79
2018-05-23T08:38:40.575Z,19.78
2018-05-23T08:39:40.520Z,19.67
2018-05-23T08:40:40.404Z,19.70
2018-05-23T08:41:40.320Z,19.58
2018-05-23T08:42:40.232Z,19.43
2018-05-23T08:43:40.149Z,19.50
2018-05-23T08:44:40.091Z,19.52
2018-05-23T08:45:39.975Z,19.47
2018-05-23T08:46:39.893Z,19.52
2018-05-23T08:47:39.806Z,19.49
2018-05-23T08:48:39.723Z,19.53
2018-05-23T08:49:39.665Z,19.60
2018-05-23T08:50:39.549Z,19.70
2018-05-23T08:51:39.465Z,19.64
2018-05-23T08:52:39.382Z,19.58
2018-05-23T08:53:39.290Z,19.49
2018-05-23T08:54:39.234Z,19.55
2018-05-23T08:55:39.120Z,19.75
2018-05-23T08:56:39.035Z,19.80
2018-05-23T08:57:38.950Z,19.95
2018-05-23T08:58:38.863Z,20.08
2018-05-23T08:59:38.810Z,20.17
2018-05-23T09:00:38.793Z,20.38
2018-05-23T09:01:38.605Z,20.37
2018-05-23T09:02:38.521Z,20.40
2018-05-23T09:03:38.433Z,20.57
2018-05-23T09:04:38.380Z,20.68
2018-05-23T09:05:38.261Z,20.68
2018-05-23T09:06:38.179Z,20.75
2018-05-23T09:07:38.092Z,20.98
2018-05-23T09:08:38.009Z,21.18
2018-05-23T09:09:37.951Z,21.52
2018-05-23T09:10:37.835Z,21.61
2018-05-23T09:11:37.751Z,21.42
2018-05-23T09:12:37.794Z,21.58
2018-05-23T09:13:37.593Z,21.53
2018-05-23T09:14:37.615Z,21.45
2018-05-23T09:15:37.413Z,21.67
2018-05-23T09:16:37.326Z,21.63
2018-05-23T09:17:37.242Z,21.53
2018-05-23T09:18:37.160Z,21.75
2018-05-23T09:19:37.100Z,22.19
2018-05-23T09:20:36.987Z,22.54
2018-05-23T09:21:37.014Z,23.47
2018-05-23T09:22:36.817Z,24.12
2018-05-23T09:23:36.734Z,24.45
2018-05-23T09:24:36.679Z,24.51
2018-05-23T09:25:37.207Z,24.97
2018-05-23T09:26:37.208Z,25.29
2018-05-23T09:27:36.401Z,25.31
2018-05-23T09:28:36.411Z,25.23
2018-05-23T09:29:36.238Z,24.55
2018-05-23T09:30:36.183Z,24.29
2018-05-23T09:31:36.069Z,23.62
2018-05-23T09:32:36.000Z,23.68
2018-05-23T09:33:35.904Z,23.99
2018-05-23T09:34:35.827Z,24.29
2018-05-23T09:35:35.775Z,24.19
2018-05-23T09:36:35.659Z,24.67
2018-05-23T09:37:35.576Z,24.64
2018-05-23T09:38:35.499Z,24.45
2018-05-23T09:39:35.418Z,24.23
2018-05-23T09:40:35.365Z,23.89
2018-05-23T09:41:35.254Z,23.84
2018-05-23T09:42:35.173Z,23.47
2018-05-23T09:43:35.093Z,23.31
2018-05-23T09:44:35.009Z,23.57
2018-05-23T09:45:34.963Z,23.31
2018-05-23T09:46:34.845Z,23.64
2018-05-23T09:47:34.767Z,23.64
2018-05-23T09:48:34.688Z,23.57
2018-05-23T09:49:34.604Z,23.60
2018-05-23T09:50:34.556Z,23.53
2018-05-23T09:51:34.443Z,23.23
2018-05-23T09:52:34.364Z,23.29
2018-05-23T09:53:34.281Z,23.26
2018-05-23T09:54:34.199Z,23.39
2018-05-23T09:55:34.151Z,23.57
2018-05-23T09:56:34.039Z,23.62
2018-05-23T09:57:33.959Z,23.57
2018-05-23T09:58:33.878Z,23.54
2018-05-23T09:59:33.793Z,23.68
2018-05-23T10:00:33.745Z,23.68
2018-05-23T10:01:33.634Z,23.09
2018-05-23T10:02:33.550Z,22.89
2018-05-23T10:03:34.221Z,22.76
2018-05-23T10:04:33.386Z,22.91
2018-05-23T10:05:33.340Z,23.01
2018-05-23T10:06:33.236Z,22.78
2018-05-23T10:07:33.149Z,22.49
2018-05-23T10:08:33.068Z,22.48
2018-05-23T10:09:32.983Z,22.45
2018-05-23T10:10:32.936Z,22.49
2018-05-23T10:11:32.823Z,22.11
2018-05-23T10:12:32.742Z,21.82
2018-05-23T10:13:32.660Z,21.93
2018-05-23T10:14:32.580Z,22.08
2018-05-23T10:15:32.528Z,21.74
2018-05-23T10:16:32.416Z,21.96
2018-05-23T10:17:32.333Z,21.90
2018-05-23T10:18:32.535Z,21.89
2018-05-23T10:19:32.170Z,21.98
2018-05-23T10:20:32.117Z,21.94
2018-05-23T10:21:32.005Z,21.91
2018-05-23T10:22:31.925Z,21.89
2018-05-23T10:23:31.846Z,21.96
2018-05-23T10:24:31.756Z,22.04
2018-05-23T10:25:31.704Z,22.06
2018-05-23T10:26:31.590Z,22.05
2018-05-23T10:27:31.510Z,22.15
2018-05-23T10:28:31.432Z,22.01
2018-05-23T10:29:31.343Z,22.29
2018-05-23T10:30:31.290Z,22.48
2018-05-23T10:31:31.175Z,22.81
2018-05-23T10:32:31.094Z,22.91
2018-05-23T10:33:31.074Z,22.91
2018-05-23T10:34:30.928Z,22.84
2018-05-23T10:35:30.879Z,23.31
2018-05-23T10:36:30.761Z,23.69
2018-05-23T10:37:30.684Z,23.82
2018-05-23T10:38:30.597Z,24.09
2018-05-23T10:39:31.308Z,23.77
2018-05-23T10:40:30.436Z,23.47
2018-05-23T10:41:30.380Z,23.35
2018-05-23T10:42:30.269Z,23.39
2018-05-23T10:43:30.186Z,23.44
2018-05-23T10:44:30.103Z,23.59
2018-05-23T10:45:30.026Z,23.67
2018-05-23T10:46:29.975Z,23.79
2018-05-23T10:47:29.858Z,23.84
2018-05-23T10:48:29.775Z,24.06
2018-05-23T10:49:29.694Z,23.99
2018-05-23T10:50:29.617Z,24.00
2018-05-23T10:51:29.560Z,24.23
2018-05-23T10:52:29.447Z,24.04
2018-05-23T10:53:29.365Z,24.60
2018-05-23T10:54:29.283Z,24.24
2018-05-23T10:55:29.217Z,24.19
2018-05-23T10:56:29.153Z,24.68
2018-05-23T10:57:29.041Z,24.98
2018-05-23T10:58:28.961Z,25.48
2018-05-23T10:59:28.879Z,25.82
2018-05-23T11:00:28.801Z,26.56
2018-05-23T11:01:28.884Z,26.93
2018-05-23T11:02:28.636Z,26.57
2018-05-23T11:03:28.580Z,27.21
2018-05-23T11:04:28.477Z,27.40
2018-05-23T11:05:28.394Z,26.27
2018-05-23T11:06:28.351Z,26.09
2018-05-23T11:07:28.230Z,26.27
2018-05-23T11:08:28.156Z,25.24
2018-05-23T11:09:28.075Z,24.63
2018-05-23T11:10:27.994Z,23.99
2018-05-23T11:11:27.942Z,24.45
2018-05-23T11:12:27.835Z,24.68
2018-05-23T11:13:27.755Z,24.42
2018-05-23T11:14:27.675Z,23.67
2018-05-23T11:15:27.593Z,23.63
2018-05-23T11:16:27.545Z,23.75
2018-05-23T11:17:27.435Z,23.56
2018-05-23T11:18:27.358Z,24.39
2018-05-23T11:19:27.273Z,25.07
2018-05-23T11:20:27.195Z,25.45
2018-05-23T11:21:27.146Z,24.93
2018-05-23T11:22:27.037Z,25.24
2018-05-23T11:23:26.955Z,25.22
2018-05-23T11:24:27.805Z,25.79
2018-05-23T11:25:26.795Z,26.09
2018-05-23T11:26:26.752Z,26.19
2018-05-23T11:27:26.634Z,26.00
2018-05-23T11:28:26.555Z,26.28
2018-05-23T11:29:26.474Z,25.96
2018-05-23T11:30:26.395Z,25.72
2018-05-23T11:31:26.348Z,24.74
2018-05-23T11:32:26.236Z,24.08
2018-05-23T11:33:26.156Z,23.75
2018-05-23T11:34:26.073Z,24.21
2018-05-23T11:35:25.998Z,23.86
2018-05-23T11:36:25.946Z,24.83
2018-05-23T11:37:25.836Z,25.27
2018-05-23T11:38:25.757Z,25.85
2018-05-23T11:39:25.739Z,26.24
2018-05-23T11:40:26.318Z,25.98
2018-05-23T11:41:25.634Z,25.81
2018-05-23T11:42:25.435Z,25.67
2018-05-23T11:43:25.356Z,25.71
2018-05-23T11:44:25.374Z,24.99
2018-05-23T11:45:25.196Z,24.31
2018-05-23T11:46:25.144Z,24.18
2018-05-23T11:47:25.073Z,24.45
2018-05-23T11:48:24.957Z,24.41
2018-05-23T11:49:24.878Z,24.92
2018-05-23T11:50:24.797Z,25.16
2018-05-23T11:51:24.717Z,25.81
2018-05-23T11:52:24.671Z,25.81
2018-05-23T11:53:24.560Z,25.67
2018-05-23T11:54:24.483Z,25.16
2018-05-23T11:55:24.401Z,24.99
2018-05-23T11:56:24.318Z,24.83
2018-05-23T11:57:24.274Z,24.64
2018-05-23T11:58:24.160Z,24.90
2018-05-23T11:59:24.079Z,25.51
2018-05-23T12:00:23.998Z,25.85
2018-05-23T12:01:24.865Z,26.27
2018-05-23T12:02:24.771Z,26.56
2018-05-23T12:03:23.760Z,26.06
2018-05-23T12:04:23.685Z,25.04
2018-05-23T12:05:23.597Z,23.89
2018-05-23T12:06:23.523Z,24.15
2018-05-23T12:07:23.470Z,24.84
2018-05-23T12:08:23.359Z,25.17
2018-05-23T12:09:23.374Z,25.54
2018-05-23T12:10:23.222Z,26.21
2018-05-23T12:11:23.123Z,26.60
2018-05-23T12:12:23.071Z,26.36
2018-05-23T12:13:22.962Z,25.69
2018-05-23T12:14:22.887Z,25.74
2018-05-23T12:15:22.802Z,25.75
2018-05-23T12:16:22.836Z,25.29
2018-05-23T12:17:22.674Z,24.23
2018-05-23T12:18:22.563Z,24.31
2018-05-23T12:19:22.485Z,25.23
2018-05-23T12:20:22.406Z,25.89
2018-05-23T12:21:23.277Z,26.47
2018-05-23T12:22:23.276Z,26.41
2018-05-23T12:23:22.254Z,26.87
2018-05-23T12:24:22.086Z,26.21
2018-05-23T12:25:22.007Z,26.79
2018-05-23T12:26:21.928Z,26.91
2018-05-23T12:27:21.880Z,26.51
2018-05-23T12:28:21.770Z,26.68
2018-05-23T12:29:21.690Z,26.44
2018-05-23T12:30:21.701Z,26.91
2018-05-23T12:31:21.533Z,27.03
2018-05-23T12:32:22.281Z,26.71
2018-05-23T12:33:21.375Z,26.53
2018-05-23T12:34:21.300Z,26.03
2018-05-23T12:35:21.218Z,25.71
2018-05-23T12:36:21.141Z,25.29
2018-05-23T12:37:21.182Z,25.01
2018-05-23T12:38:20.984Z,24.74
2018-05-23T12:39:20.901Z,24.59
2018-05-23T12:40:20.825Z,24.39
2018-05-23T12:41:20.745Z,24.05
2018-05-23T12:42:20.693Z,23.86
2018-05-23T12:43:20.588Z,23.29
2018-05-23T12:44:20.606Z,22.88
2018-05-23T12:45:20.423Z,22.61
2018-05-23T12:46:20.346Z,22.36
2018-05-23T12:47:20.297Z,22.09
2018-05-23T12:48:20.188Z,21.98
2018-05-23T12:49:20.106Z,21.81
2018-05-23T12:50:20.027Z,21.73
2018-05-23T12:51:20.048Z,21.42